createdAt,value
2023-01-02T00:01:06.063Z,7.93
2023-01-02T00:03:33.010Z,9.93
2023-01-02T00:06:03.659Z,10.50
2023-01-02T00:08:30.443Z,8.33
2023-01-02T00:10:57.214Z,12.30
2023-01-02T00:13:24.046Z,8.80
2023-01-02T00:15:50.800Z,10.87
2023-01-02T00:18:18.098Z,9.60
2023-01-02T00:20:44.831Z,9.50
2023-01-02T00:23:11.541Z,9.40
2023-01-02T00:25:38.348Z,7.00
2023-01-02T00:28:05.032Z,8.23
2023-01-02T00:30:37.895Z,12.53
2023-01-02T00:33:06.262Z,7.80
2023-01-02T00:35:33.405Z,8.43
2023-01-02T00:38:00.109Z,10.23
2023-01-02T00:40:27.052Z,8.67
2023-01-02T00:42:53.763Z,10.93
2023-01-02T00:45:20.694Z,11.73
2023-01-02T00:47:47.345Z,8.70
2023-01-02T00:50:14.027Z,10.93
2023-01-02T00:52:40.694Z,13.33
2023-01-02T00:55:07.715Z,11.00
2023-01-02T00:57:34.600Z,8.37
2023-01-02T01:00:01.239Z,8.00
2023-01-02T01:02:28.025Z,10.67
2023-01-02T01:04:54.818Z,7.37
2023-01-02T01:07:21.399Z,9.87
2023-01-02T01:09:48.069Z,12.70
2023-01-02T01:12:14.717Z,9.33
2023-01-02T01:14:41.360Z,10.33
2023-01-02T01:17:07.990Z,10.60
2023-01-02T01:19:35.834Z,10.43
2023-01-02T01:22:02.566Z,8.00
2023-01-02T01:24:29.423Z,12.77
2023-01-02T01:26:56.148Z,9.73
2023-01-02T01:29:22.862Z,7.87
2023-01-02T01:31:49.579Z,10.33
2023-01-02T01:34:17.519Z,11.03
2023-01-02T01:36:44.207Z,8.13
2023-01-02T01:39:11.806Z,6.07
2023-01-02T01:41:38.516Z,10.87
2023-01-02T01:44:39.464Z,11.13
2023-01-02T01:47:32.494Z,7.93
2023-01-02T01:50:14.413Z,7.23
2023-01-02T01:53:07.678Z,10.50
2023-01-02T01:55:43.280Z,14.20
2023-01-02T01:58:21.598Z,9.27
2023-01-02T02:00:49.535Z,9.73
2023-01-02T02:03:20.080Z,8.20
2023-01-02T02:05:48.100Z,8.00
2023-01-02T02:08:42.016Z,11.00
2023-01-02T02:11:10.086Z,11.33
2023-01-02T02:13:36.797Z,7.67
2023-01-02T02:16:06.574Z,9.80
2023-01-02T02:19:07.493Z,13.17
2023-01-02T02:22:09.779Z,15.30
2023-01-02T02:24:59.249Z,11.57
2023-01-02T02:27:46.196Z,9.53
2023-01-02T02:30:22.679Z,11.60
2023-01-02T02:33:31.183Z,10.70
2023-01-02T02:36:09.403Z,12.80
2023-01-02T02:38:45.175Z,9.90
2023-01-02T02:41:59.054Z,11.60
2023-01-02T02:44:43.598Z,15.10
2023-01-02T02:47:21.342Z,11.70
2023-01-02T02:50:14.347Z,13.40
2023-01-02T02:52:51.462Z,14.90
2023-01-02T02:55:24.955Z,9.90
2023-01-02T02:57:53.043Z,12.20
2023-01-02T03:00:23.040Z,9.47
2023-01-02T03:02:50.090Z,11.13
2023-01-02T03:05:22.948Z,9.33
2023-01-02T03:08:05.254Z,11.63
2023-01-02T03:10:40.882Z,10.83
2023-01-02T03:13:18.287Z,6.20
2023-01-02T03:16:04.847Z,7.97
2023-01-02T03:18:46.732Z,10.23
2023-01-02T03:21:30.901Z,8.73
2023-01-02T03:24:04.338Z,13.70
2023-01-02T03:26:33.754Z,13.33
2023-01-02T03:29:18.419Z,10.37
2023-01-02T03:31:49.583Z,9.83
2023-01-02T03:34:28.956Z,12.23
2023-01-02T03:37:01.903Z,9.47
2023-01-02T03:39:31.173Z,12.23
2023-01-02T03:42:06.881Z,12.77
2023-01-02T03:45:06.460Z,9.93
2023-01-02T03:47:54.878Z,13.20
2023-01-02T03:50:33.256Z,10.37
2023-01-02T03:53:00.987Z,5.80
2023-01-02T03:55:32.411Z,10.00
2023-01-02T03:58:18.327Z,9.33
2023-01-02T04:01:04.673Z,8.43
2023-01-02T04:03:45.341Z,10.00
2023-01-02T04:06:18.540Z,10.53
2023-01-02T04:08:51.841Z,9.57
2023-01-02T04:11:21.485Z,8.97
2023-01-02T04:13:58.202Z,14.90
2023-01-02T04:16:29.546Z,16.30
2023-01-02T04:19:02.927Z,11.97
2023-01-02T04:21:33.095Z,11.43
2023-01-02T04:24:06.997Z,14.50
2023-01-02T04:26:43.878Z,10.27
2023-01-02T04:29:11.134Z,15.53
2023-01-02T04:31:51.316Z,7.90
2023-01-02T04:34:20.514Z,10.93
2023-01-02T04:36:47.427Z,13.27
2023-01-02T04:39:14.140Z,14.37
2023-01-02T04:41:41.316Z,9.97
2023-01-02T04:44:07.971Z,12.40
2023-01-02T04:46:34.702Z,11.30
2023-01-02T04:49:01.352Z,10.60
2023-01-02T04:51:27.940Z,16.10
2023-01-02T04:53:54.829Z,10.70
2023-01-02T04:56:22.200Z,14.67
2023-01-02T04:58:49.734Z,9.60
2023-01-02T05:01:18.891Z,13.30
2023-01-02T05:03:48.609Z,11.87
2023-01-02T05:06:15.583Z,11.30
2023-01-02T05:08:43.610Z,13.10
2023-01-02T05:11:18.424Z,14.00
2023-01-02T05:13:45.317Z,12.17
2023-01-02T05:16:12.245Z,7.97
2023-01-02T05:18:39.176Z,12.23
2023-01-02T05:21:29.855Z,12.60
2023-01-02T05:23:57.907Z,16.43
2023-01-02T05:26:24.909Z,9.23
2023-01-02T05:28:54.827Z,9.83
2023-01-02T05:31:21.703Z,13.37
2023-01-02T05:33:56.261Z,13.70
2023-01-02T05:36:24.408Z,10.80
2023-01-02T05:38:52.620Z,11.70
2023-01-02T05:41:20.773Z,9.50
2023-01-02T05:43:47.589Z,10.80
2023-01-02T05:46:16.856Z,14.30
2023-01-02T05:48:44.851Z,8.57
2023-01-02T05:51:13.523Z,14.83
2023-01-02T05:53:40.718Z,11.30
2023-01-02T05:56:08.711Z,10.93
2023-01-02T05:58:37.438Z,12.07
2023-01-02T06:01:08.245Z,13.27
2023-01-02T06:03:34.992Z,14.13
2023-01-02T06:06:10.110Z,16.47
2023-01-02T06:08:38.261Z,9.53
2023-01-02T06:11:06.223Z,10.03
2023-01-02T06:13:34.629Z,11.63
2023-01-02T06:16:02.409Z,12.03
2023-01-02T06:18:31.908Z,10.27
2023-01-02T06:20:59.851Z,9.00
2023-01-02T06:23:27.028Z,12.60
2023-01-02T06:25:54.343Z,9.30
2023-01-02T06:28:21.764Z,11.43
2023-01-02T06:30:48.438Z,11.67
2023-01-02T06:33:16.162Z,10.27
2023-01-02T06:35:43.691Z,10.53
2023-01-02T06:38:10.372Z,13.73
2023-01-02T06:40:37.046Z,12.67
2023-01-02T06:43:03.650Z,13.70
2023-01-02T06:45:30.348Z,10.03
2023-01-02T06:47:58.121Z,10.93
2023-01-02T06:50:31.318Z,9.80
2023-01-02T06:53:01.215Z,9.20
2023-01-02T06:55:27.938Z,11.43
2023-01-02T06:57:54.652Z,15.23
2023-01-02T07:00:21.425Z,8.57
2023-01-02T07:02:48.278Z,12.73
2023-01-02T07:05:19.755Z,12.60
2023-01-02T07:07:49.619Z,9.23
2023-01-02T07:10:19.349Z,9.70
2023-01-02T07:12:46.079Z,11.27
2023-01-02T07:15:12.740Z,8.10
2023-01-02T07:17:39.424Z,8.23
2023-01-02T07:20:06.650Z,9.13
2023-01-02T07:22:33.322Z,9.50
2023-01-02T07:25:01.671Z,7.27
2023-01-02T07:27:32.188Z,12.90
2023-01-02T07:29:59.501Z,9.97
2023-01-02T07:32:27.776Z,9.47
2023-01-02T07:34:54.707Z,9.87
2023-01-02T07:37:21.348Z,12.37
2023-01-02T07:39:48.021Z,10.43
2023-01-02T07:42:14.652Z,12.73
2023-01-02T07:44:41.781Z,9.70
2023-01-02T07:47:08.450Z,10.90
2023-01-02T07:49:35.147Z,8.67
2023-01-02T07:52:01.908Z,10.33
2023-01-02T07:54:28.548Z,8.03
2023-01-02T07:56:55.283Z,12.13
2023-01-02T07:59:22.011Z,10.47
2023-01-02T08:01:48.797Z,12.87
2023-01-02T08:04:15.669Z,8.33
2023-01-02T08:06:42.567Z,10.37
2023-01-02T08:09:09.280Z,8.20
2023-01-02T08:11:36.011Z,10.37
2023-01-02T08:14:02.925Z,10.47
2023-01-02T08:16:31.121Z,10.40
2023-01-02T08:18:57.846Z,11.73
2023-01-02T08:21:30.349Z,11.27
2023-01-02T08:23:57.023Z,8.47
2023-01-02T08:26:24.038Z,10.20
2023-01-02T08:28:50.724Z,11.47
2023-01-02T08:31:21.197Z,6.93
2023-01-02T08:33:48.635Z,12.37
2023-01-02T08:36:15.660Z,11.33
2023-01-02T08:38:42.707Z,7.37
2023-01-02T08:41:09.834Z,9.63
2023-01-02T08:43:36.962Z,8.67
2023-01-02T08:46:05.691Z,11.43
2023-01-02T08:48:32.885Z,12.10
2023-01-02T08:50:59.585Z,15.77
2023-01-02T08:53:28.969Z,9.77
2023-01-02T08:55:55.622Z,11.37
2023-01-02T08:58:22.355Z,8.87
2023-01-02T09:00:52.118Z,12.83
2023-01-02T09:03:18.874Z,13.80
2023-01-02T09:05:45.492Z,10.40
2023-01-02T09:08:12.315Z,10.67
2023-01-02T09:10:40.178Z,12.83
2023-01-02T09:13:06.853Z,11.10
2023-01-02T09:15:33.633Z,13.13
2023-01-02T09:18:01.414Z,14.80
2023-01-02T09:20:28.073Z,11.50
2023-01-02T09:22:54.748Z,11.47
2023-01-02T09:25:24.391Z,8.23
2023-01-02T09:27:52.305Z,9.47
2023-01-02T09:30:19.385Z,9.77
2023-01-02T09:32:48.965Z,11.93
2023-01-02T09:35:15.865Z,9.80
2023-01-02T09:37:42.470Z,14.90
2023-01-02T09:40:11.693Z,14.70
2023-01-02T09:42:38.441Z,10.47
2023-01-02T09:45:09.125Z,9.60
2023-01-02T09:47:39.908Z,8.13
2023-01-02T09:50:13.729Z,10.40
2023-01-02T09:52:43.081Z,9.53
2023-01-02T09:55:38.193Z,8.37
2023-01-02T09:58:26.968Z,10.77
2023-01-02T10:00:54.036Z,5.77
2023-01-02T10:03:37.101Z,7.80
2023-01-02T10:06:09.897Z,9.27
2023-01-02T10:08:59.991Z,11.67
2023-01-02T10:11:35.807Z,10.27
2023-01-02T10:14:21.132Z,11.90
2023-01-02T10:16:56.258Z,9.70
2023-01-02T10:19:52.013Z,9.27
2023-01-02T10:22:31.123Z,7.47
2023-01-02T10:25:11.658Z,11.13
2023-01-02T10:27:46.621Z,8.90
2023-01-02T10:30:25.241Z,8.73
2023-01-02T10:33:19.408Z,14.37
2023-01-02T10:35:53.623Z,9.77
2023-01-02T10:38:20.802Z,13.53
2023-01-02T10:40:50.043Z,12.97
2023-01-02T10:43:18.006Z,13.07
2023-01-02T10:45:44.891Z,9.27
2023-01-02T10:48:12.142Z,8.40
2023-01-02T10:50:47.828Z,8.40
2023-01-02T10:53:28.419Z,10.07
2023-01-02T10:55:55.283Z,8.90
2023-01-02T10:58:23.532Z,9.17
2023-01-02T11:00:52.719Z,9.23
2023-01-02T11:03:27.587Z,10.87
2023-01-02T11:06:02.091Z,11.93
2023-01-02T11:08:39.271Z,11.57
2023-01-02T11:11:17.335Z,10.13
2023-01-02T11:13:54.324Z,9.73
2023-01-02T11:16:23.790Z,13.07
2023-01-02T11:19:02.060Z,9.83
2023-01-02T11:21:33.022Z,11.47
2023-01-02T11:24:01.358Z,9.30
2023-01-02T11:26:30.285Z,10.67
2023-01-02T11:29:05.895Z,12.40
2023-01-02T11:31:33.054Z,6.70
2023-01-02T11:34:21.009Z,12.40
2023-01-02T11:37:21.435Z,11.20
2023-01-02T11:40:06.489Z,12.67
2023-01-02T11:43:00.988Z,10.73
2023-01-02T11:45:28.906Z,12.97
2023-01-02T11:48:01.753Z,13.50
2023-01-02T11:50:31.156Z,11.17
2023-01-02T11:53:15.183Z,9.23
2023-01-02T11:55:49.177Z,9.40
2023-01-02T11:58:30.702Z,12.50
2023-01-02T12:01:06.179Z,11.30
2023-01-02T12:03:34.665Z,12.40
2023-01-02T12:06:20.037Z,10.27
2023-01-02T12:09:28.685Z,9.70
2023-01-02T12:11:58.151Z,11.10
2023-01-02T12:14:45.915Z,10.40
2023-01-02T12:17:58.091Z,11.20
2023-01-02T12:20:24.669Z,10.47
2023-01-02T12:23:18.137Z,11.83
2023-01-02T12:25:52.583Z,11.37
2023-01-02T12:28:37.674Z,8.00
2023-01-02T12:31:27.123Z,10.27
2023-01-02T12:34:07.522Z,10.50
2023-01-02T12:37:18.584Z,13.43
2023-01-02T12:40:03.199Z,8.43
2023-01-02T12:42:51.441Z,8.43
2023-01-02T12:45:36.744Z,11.77
2023-01-02T12:48:20.604Z,8.70
2023-01-02T12:51:12.870Z,14.77
2023-01-02T12:53:48.628Z,11.97
2023-01-02T12:57:02.800Z,14.67
2023-01-02T12:59:47.315Z,9.50
2023-01-02T13:02:42.078Z,13.07
2023-01-02T13:05:18.504Z,10.40
2023-01-02T13:07:51.051Z,11.20
2023-01-02T13:10:21.982Z,8.83
2023-01-02T13:12:48.831Z,7.97
2023-01-02T13:15:19.094Z,9.00
2023-01-02T13:18:01.052Z,9.57
2023-01-02T13:20:41.459Z,8.17
2023-01-02T13:23:32.495Z,7.40
2023-01-02T13:26:06.196Z,10.50
2023-01-02T13:28:33.965Z,10.87
2023-01-02T13:31:44.327Z,12.43
2023-01-02T13:33:54.167Z,4.23
2023-01-02T13:36:36.444Z,4.60
2023-01-02T13:39:14.573Z,4.07
2023-01-02T13:42:09.909Z,7.13
2023-01-02T13:44:40.305Z,8.00
2023-01-02T13:47:34.425Z,4.17
2023-01-02T13:50:13.762Z,2.83
2023-01-02T13:52:41.260Z,3.53
2023-01-02T13:55:30.945Z,2.97
2023-01-02T13:58:24.532Z,2.33
2023-01-02T14:00:56.668Z,4.17
2023-01-02T14:03:23.798Z,3.50
2023-01-02T14:05:56.938Z,2.53
2023-01-02T14:08:28.221Z,1.40
2023-01-02T14:11:04.248Z,2.10
2023-01-02T14:13:53.114Z,0.83
2023-01-02T14:16:22.771Z,2.20
2023-01-02T14:19:16.999Z,2.63
2023-01-02T14:21:51.569Z,3.23
2023-01-02T14:24:32.121Z,2.00
2023-01-02T14:27:03.993Z,3.13
2023-01-02T14:29:32.934Z,4.87
2023-01-02T14:32:05.807Z,2.43
2023-01-02T14:34:34.835Z,2.20
2023-01-02T14:37:03.069Z,3.13
2023-01-02T14:39:33.827Z,1.30
2023-01-02T14:42:43.618Z,2.03
2023-01-02T14:45:19.331Z,2.47
2023-01-02T14:47:54.426Z,1.70
2023-01-02T14:50:25.946Z,2.23
2023-01-02T14:53:14.112Z,3.20
2023-01-02T14:55:42.624Z,2.30
2023-01-02T14:58:40.789Z,1.80
2023-01-02T15:01:10.818Z,3.03
2023-01-02T15:03:46.293Z,2.87
2023-01-02T15:06:39.199Z,4.67
2023-01-02T15:09:19.976Z,2.20
2023-01-02T15:12:13.433Z,2.13
2023-01-02T15:14:42.447Z,2.27
2023-01-02T15:17:14.734Z,2.33
2023-01-02T15:19:42.757Z,2.33
2023-01-02T15:22:17.673Z,3.40
2023-01-02T15:24:50.403Z,1.97
2023-01-02T15:27:26.746Z,2.80
2023-01-02T15:29:57.115Z,1.70
2023-01-02T15:32:32.459Z,1.70
2023-01-02T15:35:13.086Z,1.90
2023-01-02T15:37:44.996Z,1.93
2023-01-02T15:40:33.247Z,2.77
2023-01-02T15:43:24.994Z,4.23
2023-01-02T15:45:52.816Z,2.30
2023-01-02T15:48:22.009Z,4.37
2023-01-02T15:50:51.527Z,3.10
2023-01-02T15:53:34.470Z,1.83
2023-01-02T15:56:01.183Z,2.53
2023-01-02T15:58:34.675Z,3.10
2023-01-02T16:01:19.453Z,2.77
2023-01-02T16:04:03.014Z,4.07
2023-01-02T16:06:35.085Z,2.20
2023-01-02T16:09:05.315Z,2.50
2023-01-02T16:11:36.313Z,1.90
2023-01-02T16:14:22.305Z,2.27
2023-01-02T16:17:03.058Z,2.90
2023-01-02T16:20:00.788Z,3.23
2023-01-02T16:22:47.255Z,1.57
2023-01-02T16:25:19.976Z,2.90
2023-01-02T16:27:55.729Z,1.87
2023-01-02T16:30:25.368Z,1.40
2023-01-02T16:32:52.970Z,1.60
2023-01-02T16:35:31.262Z,2.80
2023-01-02T16:38:04.351Z,2.63
2023-01-02T16:41:00.298Z,2.03
2023-01-02T16:43:18.477Z,2.30
2023-01-02T16:45:48.247Z,1.90
2023-01-02T16:48:20.268Z,1.43
2023-01-02T16:50:49.922Z,1.00
2023-01-02T16:53:20.266Z,2.23
2023-01-02T16:55:47.130Z,1.27
2023-01-02T16:58:13.840Z,1.37
2023-01-02T17:00:43.654Z,1.73
2023-01-02T17:03:26.708Z,2.43
2023-01-02T17:06:01.709Z,1.83
2023-01-02T17:08:31.672Z,2.27
2023-01-02T17:10:59.262Z,3.00
2023-01-02T17:13:26.721Z,2.87
2023-01-02T17:15:53.845Z,1.77
2023-01-02T17:18:20.607Z,4.13
2023-01-02T17:20:48.358Z,1.90
2023-01-02T17:23:18.907Z,1.40
2023-01-02T17:25:46.663Z,1.20
2023-01-02T17:28:13.702Z,1.47
2023-01-02T17:30:45.421Z,1.83
2023-01-02T17:33:12.803Z,1.70
2023-01-02T17:35:39.457Z,2.50
2023-01-02T17:38:06.281Z,1.97
2023-01-02T17:40:33.244Z,1.40
2023-01-02T17:42:59.954Z,2.20
2023-01-02T17:45:26.803Z,6.23
2023-01-02T17:48:12.199Z,1.20
2023-01-02T17:50:40.507Z,1.33
2023-01-02T17:53:07.711Z,2.27
2023-01-02T17:55:34.498Z,1.40
2023-01-02T17:58:01.377Z,2.03
2023-01-02T18:00:28.623Z,2.93
2023-01-02T18:02:55.457Z,1.30
2023-01-02T18:05:22.876Z,1.37
2023-01-02T18:07:49.923Z,2.20
2023-01-02T18:10:20.396Z,2.00
2023-01-02T18:12:49.459Z,1.97
2023-01-02T18:15:19.096Z,2.50
2023-01-02T18:17:46.731Z,2.40
2023-01-02T18:20:18.523Z,2.00
2023-01-02T18:22:49.478Z,2.57
2023-01-02T18:25:27.228Z,2.40
2023-01-02T18:28:01.275Z,2.17
2023-01-02T18:30:28.676Z,1.90
2023-01-02T18:33:11.109Z,1.50
2023-01-02T18:38:35.805Z,3.13
2023-01-02T18:41:17.902Z,2.03
2023-01-02T18:43:45.804Z,1.90
2023-01-02T18:46:16.620Z,2.20
2023-01-02T18:48:43.520Z,1.80
2023-01-02T18:51:17.487Z,2.07
2023-01-02T18:53:49.608Z,1.87
2023-01-02T18:56:23.912Z,2.27
2023-01-02T18:58:55.124Z,2.67
2023-01-02T19:01:27.153Z,1.83
2023-01-02T19:04:00.790Z,1.63
2023-01-02T19:06:28.353Z,1.80
2023-01-02T19:09:01.742Z,3.10
2023-01-02T19:11:52.142Z,2.00
2023-01-02T19:14:24.096Z,2.60
2023-01-02T19:17:14.115Z,1.63
2023-01-02T19:19:41.186Z,2.10
2023-01-02T19:22:17.727Z,2.10
2023-01-02T19:24:44.897Z,2.40
2023-01-02T19:27:35.881Z,4.63
2023-01-02T19:30:08.108Z,4.30
2023-01-02T19:32:36.017Z,2.60
2023-01-02T19:35:31.659Z,2.03
2023-01-02T19:38:00.362Z,2.80
2023-01-02T19:40:27.114Z,3.67
2023-01-02T19:42:55.167Z,3.27
2023-01-02T19:45:26.049Z,2.97
2023-01-02T19:47:53.454Z,3.50
2023-01-02T19:50:25.900Z,4.37
2023-01-02T19:52:53.285Z,3.10
2023-01-02T19:55:20.297Z,1.80
2023-01-02T19:57:47.371Z,2.30
2023-01-02T20:00:16.470Z,3.10
2023-01-02T20:02:51.494Z,3.67
2023-01-02T20:05:21.937Z,3.30
2023-01-02T20:07:53.233Z,4.60
2023-01-02T20:10:20.892Z,5.77
2023-01-02T20:12:47.928Z,5.37
2023-01-02T20:15:18.637Z,3.90
2023-01-02T20:17:45.966Z,4.17
2023-01-02T20:20:16.205Z,3.07
2023-01-02T20:22:43.601Z,5.43
2023-01-02T20:25:13.259Z,2.97
2023-01-02T20:27:40.596Z,2.90
2023-01-02T20:30:08.717Z,2.40
2023-01-02T20:32:35.426Z,2.83
2023-01-02T20:35:02.477Z,3.00
2023-01-02T20:37:31.006Z,2.90
2023-01-02T20:39:57.697Z,3.33
2023-01-02T20:42:24.475Z,3.47
2023-01-02T20:44:51.218Z,4.73
2023-01-02T20:47:17.989Z,3.80
2023-01-02T20:49:44.752Z,4.07
2023-01-02T20:52:11.466Z,5.07
2023-01-02T20:54:38.214Z,4.13
2023-01-02T20:57:04.898Z,4.80
2023-01-02T20:59:31.657Z,4.60
2023-01-02T21:01:58.689Z,4.90
2023-01-02T21:04:32.590Z,6.10
2023-01-02T21:07:04.273Z,4.70
2023-01-02T21:09:31.205Z,6.23
2023-01-02T21:11:57.871Z,5.73
2023-01-02T21:14:24.539Z,3.63
2023-01-02T21:16:51.387Z,4.30
2023-01-02T21:19:18.059Z,3.70
2023-01-02T21:21:44.956Z,4.03
2023-01-02T21:24:11.710Z,4.87
2023-01-02T21:26:38.420Z,5.83
2023-01-02T21:29:05.479Z,5.43
2023-01-02T21:31:33.932Z,4.23
2023-01-02T21:34:00.851Z,4.20
2023-01-02T21:36:27.537Z,4.10
2023-01-02T21:38:54.223Z,3.13
2023-01-02T21:41:39.390Z,3.87
2023-01-02T21:44:06.072Z,6.43
2023-01-02T21:46:32.819Z,5.87
2023-01-02T21:48:59.684Z,3.53
2023-01-02T21:51:32.156Z,3.30
2023-01-02T21:53:59.506Z,3.67
2023-01-02T21:56:26.138Z,4.80
2023-01-02T21:58:52.888Z,4.37
2023-01-02T22:01:19.699Z,3.57
2023-01-02T22:03:46.657Z,4.10
2023-01-02T22:06:14.085Z,3.00
2023-01-02T22:08:40.891Z,4.00
2023-01-02T22:11:26.029Z,3.70
2023-01-02T22:13:52.743Z,4.90
2023-01-02T22:16:19.423Z,5.40
2023-01-02T22:18:46.197Z,4.67
2023-01-02T22:21:14.863Z,4.37
2023-01-02T22:23:41.977Z,5.83
2023-01-02T22:26:15.290Z,5.13
2023-01-02T22:28:43.315Z,4.70
2023-01-02T22:31:11.055Z,4.37
2023-01-02T22:33:38.045Z,4.97
2023-01-02T22:36:04.844Z,4.23
2023-01-02T22:38:31.510Z,5.60
2023-01-02T22:40:58.295Z,4.23
2023-01-02T22:43:25.212Z,4.30
2023-01-02T22:45:53.350Z,6.40
2023-01-02T22:48:20.030Z,5.47
2023-01-02T22:50:48.573Z,4.63
2023-01-02T22:53:29.446Z,7.37
2023-01-02T22:55:56.778Z,6.90
2023-01-02T22:58:24.788Z,6.03
2023-01-02T23:00:57.553Z,5.13
2023-01-02T23:03:24.260Z,6.57
2023-01-02T23:05:50.861Z,7.03
2023-01-02T23:08:17.641Z,4.90
2023-01-02T23:10:44.280Z,5.80
2023-01-02T23:13:10.990Z,5.63
2023-01-02T23:15:58.895Z,6.37
2023-01-02T23:18:44.865Z,5.03
2023-01-02T23:21:11.625Z,6.17
2023-01-02T23:23:38.413Z,4.33
2023-01-02T23:26:06.528Z,4.60
2023-01-02T23:29:05.360Z,4.50
2023-01-02T23:31:21.390Z,5.43
2023-01-02T23:33:48.066Z,6.17
2023-01-02T23:36:16.427Z,4.43
2023-01-02T23:38:43.887Z,5.17
2023-01-02T23:41:10.595Z,6.07
2023-01-02T23:43:37.231Z,5.90
2023-01-02T23:46:04.132Z,5.73
2023-01-02T23:48:30.873Z,5.37
2023-01-02T23:51:02.169Z,4.67
2023-01-02T23:53:29.040Z,5.60
2023-01-02T23:55:56.233Z,6.17
2023-01-02T23:58:23.575Z,5.13
